Terminal Aerodrome Forecast
Issued by NWS

Home | Current Version | Previous Version | Text Only | Print | Product List | Glossary On
Versions: 1 2 3 4 5 6 7 8 9 10 11 12 13 14 15 16 17 18 19 20 21 22 23 24 25 26
000
FTUS41 KCAR 201952 AAA
TAFBHB
TAF AMD
KBHB 201952Z 2020/2118 09005KT 5SM -RA OVC009
     FM202100 10004KT P6SM VCSH OVC003
     FM210500 13004KT 1SM BR OVC002
     FM211400 24011KT 1SM BR SCT002
     FM211500 24013KT 2SM BR SCT002=

USA.gov is the U.S. government's official web portal to all federal, state and local government web resources and services.